createdAt,value
2019-05-10T00:01:03.438Z,23.23
2019-05-10T00:06:04.949Z,18.07
2019-05-10T00:11:06.500Z,20.47
2019-05-10T00:16:08.123Z,19.47
2019-05-10T00:21:09.555Z,17.97
2019-05-10T00:26:11.098Z,19.43
2019-05-10T00:31:12.419Z,15.47
2019-05-10T00:36:14.048Z,18.50
2019-05-10T00:41:15.553Z,18.17
2019-05-10T00:46:17.087Z,13.77
2019-05-10T00:51:18.586Z,15.90
2019-05-10T00:56:19.879Z,17.63
2019-05-10T01:01:21.263Z,19.27
2019-05-10T01:06:22.792Z,19.70
2019-05-10T01:11:24.272Z,23.87
2019-05-10T01:16:25.781Z,23.37
2019-05-10T01:21:27.301Z,21.90
2019-05-10T01:26:28.797Z,21.30
2019-05-10T01:31:30.345Z,17.60
2019-05-10T01:36:31.815Z,21.83
2019-05-10T01:41:33.403Z,19.67
2019-05-10T01:46:34.779Z,21.07
2019-05-10T01:51:36.191Z,16.90
2019-05-10T01:56:37.727Z,15.00
2019-05-10T02:01:39.094Z,13.17
2019-05-10T02:06:40.652Z,18.00
2019-05-10T02:11:42.115Z,11.93
2019-05-10T02:16:43.539Z,14.83
2019-05-10T02:21:44.952Z,11.50
2019-05-10T02:26:46.317Z,13.87
2019-05-10T02:31:47.862Z,16.93
2019-05-10T02:36:49.383Z,12.33
2019-05-10T02:41:50.858Z,13.10
2019-05-10T02:46:52.286Z,12.33
2019-05-10T02:51:53.778Z,21.00
2019-05-10T02:56:55.384Z,11.40
2019-05-10T03:01:56.927Z,17.00
2019-05-10T03:07:01.758Z,14.43
2019-05-10T03:12:35.979Z,16.83
2019-05-10T03:17:37.240Z,11.53
2019-05-10T03:22:41.758Z,12.63
2019-05-10T03:27:43.251Z,13.17
2019-05-10T03:32:44.776Z,10.93
2019-05-10T03:37:46.138Z,8.53
2019-05-10T03:42:47.725Z,9.73
2019-05-10T03:47:49.208Z,12.10
2019-05-10T03:52:52.316Z,9.53
2019-05-10T03:57:54.209Z,10.53
2019-05-10T04:02:55.726Z,11.70
2019-05-10T04:07:57.102Z,10.17
2019-05-10T04:12:58.517Z,12.50
2019-05-10T04:18:00.029Z,6.80
2019-05-10T04:23:01.461Z,14.63
2019-05-10T04:28:03.033Z,13.57
2019-05-10T04:33:04.518Z,13.87
2019-05-10T04:38:06.040Z,7.23
2019-05-10T04:43:07.576Z,7.83
2019-05-10T04:48:08.973Z,8.67
2019-05-10T04:53:10.495Z,8.87
2019-05-10T04:58:12.041Z,8.80
2019-05-10T05:03:13.570Z,4.13
2019-05-10T05:08:15.074Z,6.77
2019-05-10T05:13:17.566Z,8.37
2019-05-10T05:18:19.062Z,6.70
2019-05-10T05:23:20.624Z,6.23
2019-05-10T05:28:23.195Z,9.27
2019-05-10T05:33:25.548Z,14.70
2019-05-10T05:38:27.092Z,9.97
2019-05-10T05:43:28.628Z,6.03
2019-05-10T05:48:40.030Z,11.80
2019-05-10T05:53:35.774Z,8.23
2019-05-10T05:58:38.101Z,7.77
2019-05-10T06:03:40.556Z,6.43
2019-05-10T06:08:42.104Z,7.20
2019-05-10T06:13:43.545Z,6.63
2019-05-10T06:18:47.395Z,3.97
2019-05-10T06:23:50.311Z,7.03
2019-05-10T06:29:03.772Z,10.03
2019-05-10T06:33:55.334Z,7.80
2019-05-10T06:38:57.020Z,6.43
2019-05-10T06:43:58.476Z,6.87
2019-05-10T06:49:07.214Z,7.70
2019-05-10T06:54:03.361Z,8.83
2019-05-10T06:59:13.435Z,13.73
2019-05-10T07:04:09.664Z,9.50
2019-05-10T07:09:11.199Z,11.23
2019-05-10T07:14:12.716Z,6.50
2019-05-10T07:19:14.264Z,9.13
2019-05-10T07:24:18.319Z,7.50
2019-05-10T07:29:29.779Z,6.27
2019-05-10T07:34:22.664Z,8.53
2019-05-10T07:39:24.054Z,11.87
2019-05-10T07:44:25.621Z,8.37
2019-05-10T07:49:30.234Z,6.10
2019-05-10T07:54:30.688Z,13.10
2019-05-10T07:59:48.667Z,9.17
2019-05-10T08:04:38.294Z,6.50
2019-05-10T08:09:44.765Z,7.87
2019-05-10T08:14:44.543Z,7.03
2019-05-10T08:19:46.260Z,6.33
2019-05-10T08:24:52.904Z,4.83
2019-05-10T08:30:15.836Z,8.13
2019-05-10T08:34:56.162Z,5.20
2019-05-10T08:39:57.820Z,11.10
2019-05-10T08:45:05.309Z,6.45
2019-05-10T08:50:18.457Z,8.30
2019-05-10T08:55:06.158Z,5.35
2019-05-10T09:00:09.115Z,2.75
2019-05-10T09:05:12.435Z,6.78
2019-05-10T09:10:14.348Z,5.85
2019-05-10T09:15:15.832Z,7.25
2019-05-10T09:20:25.931Z,5.40
2019-05-10T09:25:29.313Z,8.63
2019-05-10T09:30:32.397Z,6.23
2019-05-10T09:35:33.239Z,5.00
2019-05-10T09:40:34.856Z,3.10
2019-05-10T09:45:36.419Z,6.67
2019-05-10T09:50:42.074Z,5.60
2019-05-10T09:55:45.746Z,5.23
2019-05-10T10:00:48.548Z,4.97
2019-05-10T10:05:55.218Z,4.57
2019-05-10T10:10:53.388Z,7.93
2019-05-10T10:15:54.760Z,10.03
2019-05-10T10:20:56.301Z,5.23
2019-05-10T10:25:58.105Z,6.17
2019-05-10T10:31:05.137Z,6.47
2019-05-10T10:36:07.005Z,7.47
2019-05-10T10:41:08.249Z,8.18
2019-05-10T10:46:12.538Z,7.87
2019-05-10T10:51:13.346Z,7.15
2019-05-10T10:56:17.644Z,7.28
2019-05-10T11:01:24.626Z,6.42
2019-05-10T11:06:22.686Z,10.53
2019-05-10T11:11:24.226Z,10.53
2019-05-10T11:16:25.788Z,8.05
2019-05-10T11:21:28.606Z,7.78
2019-05-10T11:26:32.766Z,12.28
2019-05-10T11:31:34.165Z,7.33
2019-05-10T11:36:35.609Z,7.25
2019-05-10T11:41:37.119Z,6.35
2019-05-10T11:46:38.658Z,8.00
2019-05-10T11:51:41.374Z,9.95
2019-05-10T11:56:43.044Z,8.53
2019-05-10T12:01:56.860Z,9.50
2019-05-10T12:06:51.403Z,7.08
2019-05-10T12:11:56.734Z,9.83
2019-05-10T12:16:56.550Z,8.43
2019-05-10T12:21:58.048Z,9.33
2019-05-10T12:27:17.248Z,11.63
2019-05-10T12:32:02.950Z,6.15
2019-05-10T12:37:08.312Z,7.12
2019-05-10T12:42:07.981Z,6.87
2019-05-10T12:47:11.328Z,4.62
2019-05-10T12:52:14.137Z,6.10
2019-05-10T12:57:18.262Z,12.70
2019-05-10T13:02:19.732Z,8.85
2019-05-10T13:07:21.244Z,7.35
2019-05-10T13:12:22.937Z,15.60
2019-05-10T13:17:24.365Z,8.37
2019-05-10T13:22:25.926Z,9.77
2019-05-10T13:27:27.381Z,9.83
2019-05-10T13:32:28.884Z,9.60
2019-05-10T13:37:30.391Z,11.20
2019-05-10T13:42:36.441Z,10.90
2019-05-10T13:47:35.354Z,9.95
2019-05-10T13:52:38.910Z,7.17
2019-05-10T13:57:40.280Z,8.25
2019-05-10T14:02:41.765Z,11.48
2019-05-10T14:07:51.051Z,8.70
2019-05-10T14:12:46.659Z,3.80
2019-05-10T14:17:48.142Z,5.03
2019-05-10T14:22:56.015Z,8.38
2019-05-10T14:27:53.111Z,12.07
2019-05-10T14:32:54.642Z,7.72
2019-05-10T14:38:07.091Z,10.30
2019-05-10T14:42:59.748Z,5.85
2019-05-10T14:48:01.396Z,8.47
2019-05-10T14:53:02.954Z,7.17
2019-05-10T14:58:04.530Z,7.35
2019-05-10T15:03:06.037Z,7.60
2019-05-10T15:08:07.569Z,10.63
2019-05-10T15:13:09.161Z,11.65
2019-05-10T15:18:10.650Z,6.93
2019-05-10T15:23:12.183Z,7.17
2019-05-10T15:28:13.735Z,7.50
2019-05-10T15:33:15.354Z,8.50
2019-05-10T15:38:16.910Z,6.62
2019-05-10T15:43:18.991Z,8.10
2019-05-10T15:48:20.870Z,4.90
2019-05-10T15:53:25.446Z,6.90
2019-05-10T15:58:30.614Z,7.47
2019-05-10T16:03:29.442Z,8.43
2019-05-10T16:08:32.010Z,6.60
2019-05-10T16:13:33.661Z,6.62
2019-05-10T16:18:40.090Z,6.58
2019-05-10T16:23:41.303Z,5.08
2019-05-10T16:28:42.142Z,3.65
2019-05-10T16:33:48.214Z,6.58
2019-05-10T16:38:47.128Z,4.85
2019-05-10T16:43:51.754Z,5.37
2019-05-10T16:48:53.105Z,3.55
2019-05-10T16:53:54.722Z,8.23
2019-05-10T16:58:59.325Z,3.85
2019-05-10T17:04:01.544Z,4.97
2019-05-10T17:09:09.370Z,5.47
2019-05-10T17:14:07.430Z,5.25
2019-05-10T17:19:08.944Z,6.40
2019-05-10T17:24:10.476Z,5.55
2019-05-10T17:29:12.493Z,6.78
2019-05-10T17:34:24.762Z,5.30
2019-05-10T17:39:18.979Z,6.42
2019-05-10T17:44:23.234Z,6.78
2019-05-10T17:49:23.862Z,7.92
2019-05-10T17:54:25.676Z,5.22
2019-05-10T17:59:27.259Z,3.95
2019-05-10T18:04:29.269Z,4.60
2019-05-10T18:09:30.793Z,5.83
2019-05-10T18:14:32.377Z,5.05
2019-05-10T18:19:33.952Z,4.90
2019-05-10T18:24:38.640Z,6.03
2019-05-10T18:29:38.808Z,6.03
2019-05-10T18:34:40.423Z,4.78
2019-05-10T18:39:47.223Z,7.33
2019-05-10T18:44:52.047Z,5.40
2019-05-10T18:49:50.189Z,4.35
2019-05-10T18:54:51.626Z,5.37
2019-05-10T18:59:53.263Z,4.55
2019-05-10T19:04:54.794Z,7.40
2019-05-10T19:09:58.339Z,5.55
2019-05-10T19:15:02.217Z,6.42
2019-05-10T19:20:03.201Z,5.73
2019-05-10T19:25:11.509Z,8.57
2019-05-10T19:30:12.518Z,6.53
2019-05-10T19:35:14.005Z,7.20
2019-05-10T19:40:15.561Z,8.27
2019-05-10T19:45:19.361Z,9.37
2019-05-10T19:50:24.309Z,9.43
2019-05-10T19:55:23.933Z,11.37
2019-05-10T20:00:25.601Z,9.90
2019-05-10T20:05:27.089Z,9.20
2019-05-10T20:10:28.632Z,15.40
2019-05-10T20:15:30.153Z,10.53
2019-05-10T20:20:31.766Z,9.20
2019-05-10T20:25:33.338Z,16.13
2019-05-10T20:30:34.921Z,13.17
2019-05-10T20:35:37.149Z,10.80
2019-05-10T20:40:38.566Z,14.00
2019-05-10T20:45:40.196Z,10.50
2019-05-10T20:50:41.760Z,15.57
2019-05-10T20:55:43.302Z,11.50
2019-05-10T21:00:44.965Z,10.87
2019-05-10T21:05:46.477Z,13.83
2019-05-10T21:10:48.006Z,12.37
2019-05-10T21:15:50.017Z,16.13
2019-05-10T21:20:51.574Z,14.77
2019-05-10T21:25:53.102Z,14.60
2019-05-10T21:30:54.743Z,13.73
2019-05-10T21:35:56.633Z,11.87
2019-05-10T21:40:58.243Z,13.47
2019-05-10T21:45:59.781Z,13.13
2019-05-10T21:51:01.342Z,13.80
2019-05-10T21:56:02.917Z,10.63
2019-05-10T22:01:04.467Z,18.10
2019-05-10T22:06:06.037Z,10.73
2019-05-10T22:11:07.628Z,11.20
2019-05-10T22:16:09.193Z,11.00
2019-05-10T22:21:11.717Z,13.00
2019-05-10T22:26:13.214Z,16.53
2019-05-10T22:31:14.779Z,11.23
2019-05-10T22:36:16.458Z,10.93
2019-05-10T22:41:17.992Z,11.67
2019-05-10T22:46:19.482Z,12.80
2019-05-10T22:51:21.037Z,11.53
2019-05-10T22:56:22.538Z,15.13
2019-05-10T23:01:24.139Z,16.10
2019-05-10T23:06:25.651Z,16.13
2019-05-10T23:11:27.500Z,16.73
2019-05-10T23:16:28.991Z,18.70
2019-05-10T23:21:30.550Z,14.53
2019-05-10T23:26:32.312Z,14.40
2019-05-10T23:31:35.611Z,15.83
2019-05-10T23:36:37.346Z,11.37
2019-05-10T23:41:38.878Z,13.23
2019-05-10T23:46:40.405Z,11.57
2019-05-10T23:51:42.254Z,14.20
2019-05-10T23:56:43.690Z,14.60
